Time;durP1;ratioP1;P1;durP2;ratioP2;P2;SDS_P1;SDS_P2;PMS_P1;PMS_P2;Temp;Humidity;BMP_temperature;BMP_pressure;BME280_temperature;BME280_humidity;BME280_pressure;Samples;Min_cycle;Max_cycle;Signal;HPM_P1;HPM_P2
2021/06/21 00:00:18;;;;;;;10.80;4.57;;;;;;;26.37;49.70;100200.31;3417082;28;20498;-69
2021/06/21 00:02:16;;;;;;;6.47;3.83;;;;;;;26.35;50.06;100200.59;3416792;28;20047;-69
2021/06/21 00:03:58;;;;;;;6.73;4.73;;;;;;;26.33;49.78;100197.31;3417171;28;20050;-70
2021/06/21 00:05:38;;;;;;;8.07;3.83;;;;;;;26.32;49.80;100201.19;3417005;28;20117;-70
2021/06/21 00:07:20;;;;;;;8.97;4.93;;;;;;;26.29;50.00;100196.28;3417119;28;20505;-70
2021/06/21 00:09:01;;;;;;;7.13;4.13;;;;;;;26.27;50.10;100196.56;3417047;28;20138;-70
2021/06/21 00:10:42;;;;;;;10.57;4.30;;;;;;;26.26;50.07;100202.34;3417033;28;20043;-70
2021/06/21 00:12:23;;;;;;;8.80;4.30;;;;;;;26.25;50.51;100211.63;3415869;29;20138;-70
2021/06/21 00:14:04;;;;;;;5.97;4.03;;;;;;;26.21;50.50;100207.84;3416498;29;20098;-69
2021/06/21 00:15:45;;;;;;;10.23;4.75;;;;;;;26.20;50.63;100211.66;3416077;29;20047;-70
2021/06/21 00:17:25;;;;;;;6.07;4.23;;;;;;;26.17;50.44;100214.97;3416819;29;20046;-70
2021/06/21 00:19:06;;;;;;;12.07;4.90;;;;;;;26.15;50.46;100211.69;3416814;28;20043;-69
2021/06/21 00:20:49;;;;;;;5.53;4.93;;;;;;;26.13;50.57;100214.72;3416741;28;20043;-69
2021/06/21 00:22:29;;;;;;;10.73;4.68;;;;;;;26.10;50.39;100210.66;3416718;28;20043;-68
2021/06/21 00:24:10;;;;;;;8.70;4.53;;;;;;;26.10;50.65;100218.84;3416950;28;20039;-69
2021/06/21 00:25:51;;;;;;;10.20;5.23;;;;;;;26.11;50.38;100211.47;3416486;28;20047;-69
2021/06/21 00:27:34;;;;;;;6.70;3.95;;;;;;;26.09;50.40;100208.19;3417258;28;20051;-69
2021/06/21 00:29:15;;;;;;;11.18;4.25;;;;;;;26.09;50.88;100214.47;3415823;29;20047;-69
2021/06/21 00:30:55;;;;;;;7.27;4.53;;;;;;;26.07;50.77;100213.97;3416417;29;20039;-69
2021/06/21 00:32:38;;;;;;;7.50;4.53;;;;;;;26.06;50.89;100217.78;3415760;29;20047;-70
2021/06/21 00:34:18;;;;;;;7.22;4.55;;;;;;;26.05;50.75;100216.16;3413318;29;20047;-70
2021/06/21 00:35:59;;;;;;;13.23;4.27;;;;;;;26.03;50.60;100215.63;3416413;29;20065;-69
2021/06/21 00:37:40;;;;;;;8.93;4.33;;;;;;;26.03;50.69;100215.63;3416795;28;20434;-69
2021/06/21 00:39:21;;;;;;;8.68;4.90;;;;;;;26.04;50.55;100210.97;3415327;29;20070;-69
2021/06/21 00:41:02;;;;;;;6.72;4.35;;;;;;;26.04;50.83;100209.03;3416380;29;20047;-70
2021/06/21 00:42:44;;;;;;;8.43;4.05;;;;;;;26.04;50.64;100209.03;3416688;28;20046;-69
2021/06/21 00:44:25;;;;;;;6.20;3.78;;;;;;;26.03;50.44;100207.44;3416195;28;20047;-69
2021/06/21 00:46:06;;;;;;;8.47;4.43;;;;;;;26.06;50.51;100206.84;3415445;29;20533;-69
2021/06/21 00:47:48;;;;;;;9.20;4.63;;;;;;;26.02;50.40;100199.50;3416197;29;20039;-70
2021/06/21 00:49:29;;;;;;;8.02;4.25;;;;;;;26.10;50.77;100215.31;3416659;28;20046;-70
2021/06/21 00:51:10;;;;;;;9.20;3.73;;;;;;;26.09;50.50;100219.94;3416681;28;20495;-70
2021/06/21 00:52:57;;;;;;;5.38;3.85;;;;;;;26.07;50.64;100216.69;3416519;28;20043;-70
2021/06/21 00:54:38;;;;;;;4.50;3.83;;;;;;;26.06;50.57;100212.31;3416450;28;20043;-70
2021/06/21 00:56:19;;;;;;;8.07;5.20;;;;;;;26.04;50.76;100211.78;3415260;29;20045;-68
2021/06/21 00:58:00;;;;;;;7.03;3.60;;;;;;;26.02;50.71;100211.28;3416330;29;20082;-69
2021/06/21 00:59:41;;;;;;;4.78;4.22;;;;;;;25.98;50.78;100207.47;3415546;29;20051;-69
2021/06/21 01:01:22;;;;;;;7.90;4.40;;;;;;;25.99;50.76;100214.53;3415526;29;20118;-70
2021/06/21 01:03:04;;;;;;;7.77;4.40;;;;;;;25.99;50.52;100211.81;3416118;29;20589;-70
2021/06/21 01:04:45;;;;;;;9.40;5.85;;;;;;;25.99;50.64;100208.28;3416249;28;20039;-70
2021/06/21 01:06:27;;;;;;;10.20;5.43;;;;;;;25.99;51.00;100208.28;3416199;28;20039;-70
2021/06/21 01:08:08;;;;;;;11.27;5.22;;;;;;;25.97;50.67;100214.03;3415375;28;20043;-70
2021/06/21 01:09:51;;;;;;;6.30;4.35;;;;;;;25.95;50.65;100208.03;3415975;29;20046;-70
2021/06/21 01:11:55;;;;;;;4.68;3.70;;;;;;;25.96;50.74;100206.13;3414475;28;20047;-70
2021/06/21 01:13:44;;;;;;;10.15;4.35;;;;;;;25.95;50.75;100212.69;3416126;28;20054;-70
2021/06/21 01:15:31;;;;;;;7.70;4.50;;;;;;;25.97;51.03;100219.50;3416011;28;20524;-70
2021/06/21 01:17:23;;;;;;;7.72;4.07;;;;;;;26.00;51.02;100213.47;3415154;29;20043;-70
2021/06/21 01:19:41;;;;;;;6.18;4.10;;;;;;;26.04;50.54;100211.78;3415154;28;20054;-69
2021/06/21 01:21:55;;;;;;;6.10;3.60;;;;;;;26.04;50.68;100216.44;3415904;28;20051;-70
2021/06/21 01:24:31;;;;;;;7.63;5.32;;;;;;;26.05;50.38;100224.34;3415719;28;20062;-69
2021/06/21 01:26:18;;;;;;;7.47;4.65;;;;;;;26.03;50.45;100217.53;3401283;29;20539;-70
2021/06/21 01:28:07;;;;;;;7.70;4.68;;;;;;;26.01;50.52;100215.09;3401574;29;20149;-70
2021/06/21 01:30:06;;;;;;;10.68;4.65;;;;;;;26.00;50.92;100216.19;3415791;29;20046;-70
2021/06/21 01:31:51;;;;;;;7.03;4.70;;;;;;;25.97;51.13;100215.94;3415806;28;20082;-71
2021/06/21 01:33:32;;;;;;;12.13;5.05;;;;;;;25.96;50.80;100217.03;3414961;29;20076;-70
2021/06/21 01:35:25;;;;;;;9.77;5.25;;;;;;;25.95;51.04;100218.16;3414865;29;20564;-70
2021/06/21 01:37:06;;;;;;;13.15;7.22;;;;;;;25.93;51.11;100214.88;3400531;29;20067;-69
2021/06/21 01:38:52;;;;;;;41.53;33.10;;;;;;;25.92;51.48;100222.25;3409924;29;20051;-69
2021/06/21 01:40:39;;;;;;;25.13;22.17;;;;;;;25.94;51.00;100221.97;3414635;29;20662;-70
2021/06/21 01:42:21;;;;;;;15.63;11.63;;;;;;;25.95;51.51;100226.34;3401551;29;20043;-70
2021/06/21 01:44:04;;;;;;;13.57;9.20;;;;;;;25.93;51.68;100221.16;3410069;29;20054;-70
2021/06/21 01:45:45;;;;;;;13.65;8.48;;;;;;;25.94;51.70;100228.25;3412330;29;20047;-70
2021/06/21 01:47:26;;;;;;;10.23;8.68;;;;;;;25.95;51.67;100227.16;3415657;29;20039;-69
2021/06/21 01:49:18;;;;;;;12.83;6.97;;;;;;;25.95;51.47;100227.16;3415899;28;20055;-69
2021/06/21 01:51:02;;;;;;;;;;;;;;;25.98;51.21;100223.84;3415219;29;20039;-69
2021/06/21 01:52:43;;;;;;;7.53;6.63;;;;;;;25.92;51.18;100225.00;3412243;29;19969;-69
2021/06/21 01:54:24;;;;;;;;;;;;;;;25.95;51.17;100226.34;3415836;29;20502;-69
2021/06/21 01:56:12;;;;;;;10.38;7.32;;;;;;;25.92;51.63;100225.00;3414713;29;20008;-69
2021/06/21 01:57:54;;;;;;;14.98;8.30;;;;;;;25.89;51.89;100231.84;3412800;29;20102;-69
2021/06/21 01:59:35;;;;;;;11.85;7.68;;;;;;;25.93;51.52;100232.06;3412303;29;20047;-70
2021/06/21 02:01:17;;;;;;;11.13;6.53;;;;;;;25.91;52.05;100237.00;3415393;29;20142;-69
2021/06/21 02:02:59;;;;;;;10.68;5.50;;;;;;;25.89;51.98;100231.84;3415449;28;20047;-70
2021/06/21 02:04:40;;;;;;;;;;;;;;;25.92;51.80;100233.19;3414869;29;20162;-70
2021/06/21 02:06:28;;;;;;;10.40;5.78;;;;;;;25.89;51.59;100237.31;3415173;29;20303;-70
2021/06/21 02:08:12;;;;;;;9.60;5.28;;;;;;;25.88;51.37;100229.38;3415656;29;20047;-70
2021/06/21 02:09:55;;;;;;;7.45;5.80;;;;;;;25.92;51.44;100230.47;3415243;28;20141;-70
2021/06/21 02:11:36;;;;;;;12.70;5.57;;;;;;;25.96;51.79;100231.50;3414266;29;20135;-70
2021/06/21 02:13:19;;;;;;;8.63;6.33;;;;;;;25.99;51.16;100224.66;3415285;29;20474;-70
2021/06/21 02:15:01;;;;;;;8.88;5.78;;;;;;;26.04;51.13;100228.16;3414514;29;20047;-70
2021/06/21 02:16:41;;;;;;;6.63;5.30;;;;;;;26.07;51.44;100227.63;3411884;29;20153;-70
2021/06/21 02:18:23;;;;;;;7.37;5.07;;;;;;;26.10;51.17;100221.59;3415332;28;20035;-70
2021/06/21 02:20:05;;;;;;;9.10;5.07;;;;;;;26.13;51.34;100220.19;3414404;29;20122;-70
2021/06/21 02:21:47;;;;;;;6.50;4.80;;;;;;;26.19;50.89;100212.78;3414903;28;20043;-70
2021/06/21 02:23:28;;;;;;;7.25;5.57;;;;;;;26.23;50.89;100214.66;3413553;29;20461;-70
2021/06/21 02:25:10;;;;;;;14.57;5.57;;;;;;;26.27;50.92;100212.16;3415357;29;20051;-70
2021/06/21 02:26:51;;;;;;;12.05;8.50;;;;;;;26.29;50.63;100218.16;3414304;29;20058;-70
2021/06/21 02:28:34;;;;;;;13.30;8.50;;;;;;;26.30;50.80;100215.13;3411807;29;20074;-70
2021/06/21 02:30:16;;;;;;;16.10;8.40;;;;;;;26.33;50.77;100224.66;3412012;29;20043;-70
2021/06/21 02:31:57;;;;;;;9.75;6.10;;;;;;;26.35;50.67;100221.66;3415113;29;20050;-69
2021/06/21 02:33:37;;;;;;;9.65;5.90;;;;;;;26.36;50.65;100217.81;3415213;28;20039;-70
2021/06/21 02:35:18;;;;;;;7.40;5.80;;;;;;;26.39;50.34;100218.06;3415250;28;20503;-70
2021/06/21 02:36:59;;;;;;;9.70;6.13;;;;;;;26.43;50.66;100219.09;3415239;28;20039;-70
2021/06/21 02:38:40;;;;;;;10.53;4.57;;;;;;;26.43;50.62;100219.09;3415194;28;20043;-70
2021/06/21 02:40:20;;;;;;;7.90;5.47;;;;;;;26.41;50.20;100210.41;3414204;29;20441;-72
2021/06/21 02:42:02;;;;;;;9.30;5.20;;;;;;;26.46;50.60;100209.50;3411670;29;20134;-70
2021/06/21 02:43:43;;;;;;;8.52;5.38;;;;;;;26.49;50.43;100212.50;3414894;29;20043;-70
2021/06/21 02:45:24;;;;;;;5.17;4.53;;;;;;;26.51;50.10;100215.78;3414957;28;20082;-70
2021/06/21 02:47:05;;;;;;;7.35;5.00;;;;;;;26.56;50.34;100217.66;3415195;28;20039;-70
2021/06/21 02:48:46;;;;;;;9.73;5.50;;;;;;;26.59;50.18;100217.09;3415233;29;20063;-70
2021/06/21 02:50:26;;;;;;;10.67;5.03;;;;;;;26.61;50.19;100216.78;3400988;29;20304;-70
2021/06/21 02:52:29;;;;;;;7.70;5.50;;;;;;;26.64;49.85;100208.84;3412321;29;20477;-70
2021/06/21 02:54:37;;;;;;;8.55;4.50;;;;;;;26.67;49.69;100218.41;3414314;29;20090;-70
2021/06/21 02:56:30;;;;;;;11.75;5.43;;;;;;;26.71;50.15;100219.44;3395649;29;20612;-71
2021/06/21 02:58:35;;;;;;;10.88;4.85;;;;;;;26.73;49.64;100217.22;3415184;29;20047;-71
2021/06/21 03:00:15;;;;;;;5.85;4.97;;;;;;;26.73;49.69;100218.03;3414655;29;20047;-70
2021/06/21 03:01:57;;;;;;;6.50;4.00;;;;;;;26.75;49.72;100217.75;3415010;28;20451;-70
2021/06/21 03:03:40;;;;;;;8.73;5.20;;;;;;;26.73;49.98;100220.78;3414004;29;20047;-70
2021/06/21 03:05:22;;;;;;;10.27;4.70;;;;;;;26.78;49.99;100232.78;3414638;29;20047;-69
2021/06/21 03:07:03;;;;;;;7.57;4.45;;;;;;;26.80;49.89;100228.66;3414092;29;20039;-69
2021/06/21 03:08:45;;;;;;;7.50;4.25;;;;;;;26.80;49.79;100225.06;3414884;29;20498;-70
2021/06/21 03:10:26;;;;;;;7.63;4.93;;;;;;;26.79;50.07;100227.00;3413901;29;20051;-70
2021/06/21 03:12:07;;;;;;;7.80;5.03;;;;;;;26.79;49.60;100231.66;3411288;29;20151;-70
2021/06/21 03:13:52;;;;;;;12.40;5.10;;;;;;;26.77;50.13;100229.22;3411178;29;20283;-70
2021/06/21 03:15:33;;;;;;;6.65;4.55;;;;;;;26.77;49.71;100234.69;3414844;29;20050;-70
2021/06/21 03:17:15;;;;;;;6.57;4.88;;;;;;;26.75;49.57;100240.44;3415023;28;20399;-70
2021/06/21 03:18:56;;;;;;;6.40;4.95;;;;;;;26.79;50.06;100237.94;3414868;28;20043;-71
2021/06/21 03:20:37;;;;;;;5.87;4.43;;;;;;;26.81;49.58;100243.13;3414139;29;20528;-69
2021/06/21 03:22:20;;;;;;;6.80;4.75;;;;;;;26.86;49.65;100243.88;3411137;29;20101;-70
2021/06/21 03:24:00;;;;;;;15.20;5.05;;;;;;;26.88;49.81;100241.69;3411117;29;20055;-70
2021/06/21 03:25:41;;;;;;;12.23;5.37;;;;;;;26.90;49.26;100233.16;3414360;29;20410;-70
2021/06/21 03:27:33;;;;;;;9.13;5.27;;;;;;;26.93;49.37;100236.16;3414415;28;20566;-70
2021/06/21 03:29:16;;;;;;;9.07;5.03;;;;;;;26.93;49.71;100247.09;3414635;29;20298;-70
2021/06/21 03:31:01;;;;;;;13.73;5.47;;;;;;;26.95;49.58;100247.63;3400170;29;20053;-70
2021/06/21 03:32:43;;;;;;;16.92;4.88;;;;;;;26.97;49.40;100242.66;3409150;29;20043;-70
2021/06/21 03:34:25;;;;;;;13.00;5.45;;;;;;;26.98;49.08;100238.84;3415862;28;20518;-70
2021/06/21 03:36:07;;;;;;;9.20;5.45;;;;;;;26.99;48.68;100242.38;3416957;28;20051;-70
2021/06/21 03:37:48;;;;;;;8.73;4.13;;;;;;;27.01;48.95;100242.91;3402978;29;20070;-69
2021/06/21 03:39:29;;;;;;;13.18;4.63;;;;;;;27.04;48.41;100239.59;3414399;29;20430;-70
2021/06/21 03:41:10;;;;;;;6.50;4.47;;;;;;;27.07;48.32;100243.66;3417013;28;20043;-69
2021/06/21 03:42:53;;;;;;;9.00;4.53;;;;;;;27.07;48.21;100238.19;3416784;28;20039;-70
2021/06/21 03:44:34;;;;;;;8.27;4.22;;;;;;;27.12;47.97;100244.41;3417068;28;20055;-69
2021/06/21 03:46:16;;;;;;;5.33;3.87;;;;;;;27.15;48.33;100237.56;3417122;28;20138;-71
2021/06/21 03:47:56;;;;;;;12.70;3.90;;;;;;;27.17;47.63;100238.06;3417347;28;20075;-70
2021/06/21 03:49:39;;;;;;;8.53;4.63;;;;;;;27.17;47.79;100240.81;3417360;28;20046;-71
2021/06/21 03:51:21;;;;;;;8.75;3.55;;;;;;;27.23;47.44;100247.88;3417220;28;20039;-70
2021/06/21 03:53:03;;;;;;;8.38;3.70;;;;;;;27.26;46.92;100251.97;3417390;28;20097;-70
2021/06/21 03:54:44;;;;;;;11.00;4.22;;;;;;;27.29;47.35;100252.22;3417392;28;20494;-69
2021/06/21 03:56:25;;;;;;;5.17;3.27;;;;;;;27.29;46.97;100249.47;3417398;28;20137;-68
2021/06/21 03:58:06;;;;;;;9.07;3.27;;;;;;;27.29;46.40;100252.22;3417179;28;20509;-70
2021/06/21 03:59:46;;;;;;;7.20;3.83;;;;;;;27.31;46.72;100250.00;3417121;28;20094;-70
2021/06/21 04:01:27;;;;;;;11.70;3.80;;;;;;;27.31;46.23;100252.72;3416219;29;20047;-69
2021/06/21 04:03:08;;;;;;;9.63;3.83;;;;;;;27.31;46.67;100258.22;3416836;29;20789;-69
2021/06/21 04:04:49;;;;;;;7.85;2.92;;;;;;;27.30;46.57;100253.00;3417075;28;20138;-68
2021/06/21 04:06:30;;;;;;;7.97;3.40;;;;;;;27.29;46.76;100249.47;3417120;28;20422;-72
2021/06/21 04:08:12;;;;;;;13.23;3.53;;;;;;;27.33;47.07;100255.16;3417095;28;20110;-71
2021/06/21 04:09:53;;;;;;;19.58;4.72;;;;;;;27.39;47.96;100257.56;3417121;28;20126;-69
2021/06/21 04:11:36;;;;;;;21.90;4.63;;;;;;;27.41;48.63;100255.31;3416985;28;20470;-69
2021/06/21 04:13:17;;;;;;;19.52;5.03;;;;;;;27.47;50.10;100260.72;3416504;28;20047;-69
2021/06/21 04:14:58;;;;;;;;;;;;;;;27.55;49.56;100260.91;3417647;28;20414;-69
2021/06/21 04:16:39;;;;;;;8.65;3.65;;;;;;;27.50;48.77;100249.22;3415995;29;19926;-70
2021/06/21 04:18:20;;;;;;;22.07;4.27;;;;;;;27.55;48.41;100254.63;3416714;29;20447;-70
2021/06/21 04:20:01;;;;;;;9.30;3.37;;;;;;;27.56;47.48;100262.53;3415833;28;20533;-69
2021/06/21 04:21:42;;;;;;;9.25;3.13;;;;;;;27.56;47.19;100250.75;3416820;29;20369;-69
2021/06/21 04:23:23;;;;;;;11.00;2.53;;;;;;;27.59;47.51;100250.16;3416540;28;20063;-69
2021/06/21 04:25:05;;;;;;;7.00;3.50;;;;;;;27.63;47.54;100256.69;3415762;29;20078;-68
2021/06/21 04:26:46;;;;;;;12.07;3.70;;;;;;;27.67;47.90;100265.94;3416790;29;20050;-70
2021/06/21 04:28:27;;;;;;;12.47;3.50;;;;;;;27.70;47.25;100254.41;3416895;28;20502;-70
2021/06/21 04:30:13;;;;;;;12.63;3.70;;;;;;;27.74;47.57;100262.84;3416068;29;20043;-70
2021/06/21 04:31:53;;;;;;;8.68;3.10;;;;;;;27.76;47.40;100255.97;3416895;29;20530;-70
2021/06/21 04:33:34;;;;;;;6.90;2.87;;;;;;;27.78;47.50;100259.22;3416768;28;20047;-69
2021/06/21 04:35:17;;;;;;;5.77;2.50;;;;;;;27.72;47.55;100243.97;3416592;28;20098;-69
2021/06/21 04:36:57;;;;;;;6.43;3.25;;;;;;;27.86;46.74;100265.19;3415780;29;20055;-69
2021/06/21 04:38:38;;;;;;;8.80;3.47;;;;;;;27.86;46.46;100262.47;3416650;29;20569;-69
2021/06/21 04:40:22;;;;;;;11.88;3.10;;;;;;;27.82;46.39;100260.28;3416491;28;20570;-71
2021/06/21 04:42:03;;;;;;;4.45;2.70;;;;;;;27.85;45.99;100267.09;3416761;28;20512;-69
2021/06/21 04:43:43;;;;;;;9.40;2.97;;;;;;;27.87;45.89;100266.81;3416604;28;20042;-71
2021/06/21 04:45:25;;;;;;;12.67;3.40;;;;;;;27.89;45.65;100262.66;3414247;28;20043;-71
2021/06/21 04:47:06;;;;;;;6.38;3.05;;;;;;;27.92;46.24;100255.78;3416374;29;20039;-70
2021/06/21 04:48:48;;;;;;;8.57;3.10;;;;;;;27.93;45.61;100266.47;3415444;29;20564;-70
2021/06/21 04:50:30;;;;;;;6.47;3.53;;;;;;;27.96;45.81;100263.13;3416395;29;20130;-70
2021/06/21 04:52:12;;;;;;;5.45;3.25;;;;;;;28.00;45.73;100268.81;3415316;29;20506;-71
2021/06/21 04:53:52;;;;;;;6.30;3.08;;;;;;;28.02;45.93;100263.84;3416000;29;20047;-69
2021/06/21 04:55:33;;;;;;;17.67;3.60;;;;;;;28.05;45.48;100268.72;3416488;28;20046;-74
2021/06/21 04:57:14;;;;;;;9.50;3.37;;;;;;;28.07;45.50;100262.97;3413485;28;20054;-74
2021/06/21 04:58:55;;;;;;;7.63;3.60;;;;;;;28.09;44.99;100264.31;3414412;29;20305;-72
2021/06/21 05:00:36;;;;;;;5.97;3.25;;;;;;;28.12;45.60;100258.22;3415659;29;20414;-73
2021/06/21 05:02:17;;;;;;;6.37;3.10;;;;;;;28.22;45.80;100269.03;3416891;28;20063;-73
2021/06/21 05:04:02;;;;;;;9.10;3.13;;;;;;;28.31;46.46;100276.56;3416881;29;20725;-72
2021/06/21 05:05:42;;;;;;;8.75;2.83;;;;;;;28.38;47.80;100266.84;3417471;29;20062;-73
2021/06/21 05:07:23;;;;;;;11.30;2.73;;;;;;;28.45;47.31;100272.78;3417732;29;20043;-73
2021/06/21 05:09:05;;;;;;;9.40;3.53;;;;;;;28.54;47.23;100274.84;3418098;28;20470;-73
2021/06/21 05:10:46;;;;;;;14.90;3.47;;;;;;;28.60;46.40;100274.44;3416729;28;20040;-73
2021/06/21 05:12:27;;;;;;;10.63;3.23;;;;;;;28.68;46.55;100271.03;3416384;28;20510;-74
2021/06/21 05:14:07;;;;;;;10.53;3.20;;;;;;;28.75;46.05;100278.03;3416919;28;20102;-73
2021/06/21 05:15:48;;;;;;;7.00;2.77;;;;;;;28.81;46.65;100274.91;3416784;28;20586;-74
2021/06/21 05:17:29;;;;;;;15.13;2.93;;;;;;;28.86;46.49;100268.50;3416984;28;20043;-72
2021/06/21 05:19:10;;;;;;;13.13;3.80;;;;;;;28.93;46.54;100266.19;3415518;28;20445;-74
2021/06/21 05:20:50;;;;;;;8.43;2.17;;;;;;;28.99;46.07;100269.63;3412681;29;20047;-73
2021/06/21 05:22:31;;;;;;;12.43;3.10;;;;;;;29.03;46.07;100271.47;3415812;29;20333;-73
2021/06/21 05:24:12;;;;;;;7.00;3.10;;;;;;;29.06;45.50;100270.09;3416663;28;20409;-73
2021/06/21 05:25:53;;;;;;;11.57;3.70;;;;;;;29.12;45.10;100272.44;3415565;29;20078;-75
2021/06/21 05:27:34;;;;;;;;;;;;;;;29.19;45.27;100271.22;3416436;29;20071;-72
2021/06/21 05:29:15;;;;;;;6.82;2.55;;;;;;;29.18;45.17;100266.84;3416577;28;19919;-73
2021/06/21 05:30:56;;;;;;;7.17;2.90;;;;;;;29.23;44.53;100264.81;3415854;28;20129;-73
2021/06/21 05:32:37;;;;;;;4.10;2.90;;;;;;;29.26;45.33;100266.13;3416217;28;20450;-73
2021/06/21 05:34:17;;;;;;;8.13;2.53;;;;;;;29.29;45.89;100268.25;3401800;29;20043;-71
2021/06/21 05:36:01;;;;;;;4.35;2.85;;;;;;;29.29;44.56;100268.25;3413137;29;20197;-73
2021/06/21 05:37:42;;;;;;;7.90;3.05;;;;;;;29.26;44.13;100261.44;3414996;29;20051;-72
2021/06/21 05:39:23;;;;;;;4.50;2.33;;;;;;;29.28;43.58;100266.66;3415533;29;20091;-72
2021/06/21 05:41:04;;;;;;;3.30;2.43;;;;;;;29.29;43.72;100271.00;3415708;28;20050;-74
2021/06/21 05:42:44;;;;;;;5.80;2.70;;;;;;;29.26;43.24;100263.41;3415685;28;20081;-72
2021/06/21 05:44:25;;;;;;;11.50;3.10;;;;;;;29.28;42.72;100261.97;3415415;28;20134;-71
2021/06/21 05:46:06;;;;;;;6.23;2.40;;;;;;;29.35;43.19;100267.03;3415494;28;20137;-71
2021/06/21 05:47:47;;;;;;;5.33;2.60;;;;;;;29.42;43.03;100259.19;3415617;28;20047;-71
2021/06/21 05:49:29;;;;;;;10.27;2.20;;;;;;;29.48;42.33;100268.13;3415485;28;20657;-71
2021/06/21 05:51:11;;;;;;;6.78;2.70;;;;;;;29.49;43.10;100264.28;3401286;29;20079;-70
2021/06/21 05:52:52;;;;;;;7.57;2.23;;;;;;;29.50;42.77;100263.97;3412597;29;20079;-70
2021/06/21 05:54:34;;;;;;;10.85;2.45;;;;;;;29.55;43.29;100266.59;3415534;28;20129;-70
2021/06/21 05:56:15;;;;;;;3.67;2.35;;;;;;;29.59;42.35;100260.53;3415390;28;20130;-71
2021/06/21 05:57:55;;;;;;;3.13;2.13;;;;;;;29.60;43.12;100262.13;3414084;28;20498;-72
2021/06/21 05:59:36;;;;;;;6.82;2.42;;;;;;;29.63;43.31;100269.75;3415270;29;20305;-72
2021/06/21 06:01:18;;;;;;;4.03;2.17;;;;;;;29.64;43.42;100263.97;3415495;28;20043;-70
2021/06/21 06:02:58;;;;;;;;;;;;;;;29.74;42.81;100265.69;3415645;28;20520;-71
2021/06/21 06:04:39;;;;;;;4.35;2.05;;;;;;;29.70;41.82;100262.75;3415178;28;19961;-71
2021/06/21 06:06:20;;;;;;;7.37;1.80;;;;;;;29.73;41.33;100261.31;3415209;28;20510;-73
2021/06/21 06:08:00;;;;;;;5.73;2.60;;;;;;;29.79;41.08;100254.56;3415427;28;20055;-72
2021/06/21 06:09:41;;;;;;;7.47;1.70;;;;;;;29.85;41.05;100255.31;3415279;28;20438;-70
2021/06/21 06:11:22;;;;;;;3.93;2.23;;;;;;;29.91;41.35;100262.28;3415126;28;20039;-73
2021/06/21 06:13:04;;;;;;;4.90;2.20;;;;;;;29.97;40.91;100261.88;3414199;29;20290;-71
2021/06/21 06:14:45;;;;;;;6.10;1.67;;;;;;;30.02;40.40;100262.88;3415160;29;20043;-71
2021/06/21 06:16:26;;;;;;;7.35;1.58;;;;;;;30.05;40.10;100257.56;3415153;28;20043;-70
2021/06/21 06:18:07;;;;;;;4.90;2.13;;;;;;;30.10;40.37;100259.38;3415466;28;20101;-71
2021/06/21 06:19:47;;;;;;;4.33;1.63;;;;;;;30.15;40.36;100260.09;3415157;28;20125;-72
2021/06/21 06:21:30;;;;;;;6.50;1.87;;;;;;;30.22;40.25;100260.44;3414140;29;20377;-71
2021/06/21 06:23:10;;;;;;;2.95;1.70;;;;;;;30.29;39.58;100264.75;3411533;29;20047;-71
2021/06/21 06:24:52;;;;;;;5.07;2.20;;;;;;;30.33;39.26;100252.78;3414561;29;20414;-71
2021/06/21 06:26:33;;;;;;;4.38;2.00;;;;;;;30.43;39.64;100260.78;3414141;29;20077;-71
2021/06/21 06:28:13;;;;;;;4.40;2.17;;;;;;;30.52;39.29;100254.53;3387674;29;20523;-72
2021/06/21 06:29:54;;;;;;;4.63;2.03;;;;;;;30.62;38.89;100255.09;3408601;29;20039;-71
2021/06/21 06:31:35;;;;;;;6.47;1.65;;;;;;;30.73;38.88;100254.81;3414855;29;20043;-70
2021/06/21 06:33:15;;;;;;;6.70;1.93;;;;;;;30.84;38.79;100257.00;3414966;28;20043;-70
2021/06/21 06:34:56;;;;;;;5.57;2.50;;;;;;;31.00;39.15;100259.31;3413804;29;20079;-71
2021/06/21 06:36:37;;;;;;;5.60;4.23;;;;;;;31.13;38.92;100252.91;3414891;29;20298;-70
2021/06/21 06:38:18;;;;;;;9.95;7.45;;;;;;;31.29;39.12;100250.53;3414887;29;20287;-72
2021/06/21 06:39:58;;;;;;;5.00;4.50;;;;;;;31.45;38.75;100253.69;3414962;28;20046;-71
2021/06/21 06:41:39;;;;;;;10.00;2.77;;;;;;;31.56;38.36;100254.19;3414590;28;20291;-71
2021/06/21 06:43:20;;;;;;;6.55;2.65;;;;;;;31.66;38.19;100251.94;3413582;29;20050;-71
2021/06/21 06:45:01;;;;;;;4.27;2.40;;;;;;;31.73;38.20;100254.22;3414857;29;20114;-70
2021/06/21 06:46:42;;;;;;;2.60;2.05;;;;;;;31.77;38.09;100257.94;3414627;29;20322;-70
2021/06/21 06:48:23;;;;;;;3.13;1.63;;;;;;;31.79;36.82;100250.16;3413494;29;20142;-70
2021/06/21 06:50:05;;;;;;;2.95;2.08;;;;;;;31.85;37.36;100254.38;3414962;29;20039;-71
2021/06/21 06:51:51;;;;;;;7.20;2.25;;;;;;;31.98;37.60;100247.09;3415120;28;20102;-71
2021/06/21 06:53:40;;;;;;;7.97;2.00;;;;;;;32.12;37.36;100249.72;3414126;29;20180;-71
2021/06/21 06:57:20;;;;;;;6.15;2.70;;;;;;;32.37;36.75;100239.75;3414670;28;20071;-72
2021/06/21 06:59:00;;;;;;;6.47;2.23;;;;;;;32.47;36.73;100244.13;3414658;28;20043;-71
2021/06/21 07:00:41;;;;;;;2.45;2.17;;;;;;;32.56;36.49;100242.19;3414872;28;20369;-72
2021/06/21 07:02:22;;;;;;;8.20;2.67;;;;;;;32.62;36.42;100248.34;3414813;28;20474;-71
2021/06/21 07:04:03;;;;;;;5.80;2.00;;;;;;;32.63;36.23;100236.16;3413710;29;20051;-70
2021/06/21 07:05:44;;;;;;;5.55;2.25;;;;;;;32.75;36.30;100241.81;3414470;29;20050;-70
2021/06/21 07:07:25;;;;;;;4.88;2.22;;;;;;;32.81;36.35;100248.75;3414663;28;20122;-71
2021/06/21 07:09:06;;;;;;;4.60;2.17;;;;;;;32.91;36.56;100247.59;3413247;29;20054;-71
2021/06/21 07:10:46;;;;;;;5.07;2.53;;;;;;;33.00;36.10;100251.94;3411052;29;20133;-70
2021/06/21 07:12:27;;;;;;;7.75;2.50;;;;;;;33.12;36.33;100245.75;3410976;29;20051;-71
2021/06/21 07:14:08;;;;;;;7.65;3.53;;;;;;;33.21;35.80;100234.66;3414637;29;20035;-70
2021/06/21 07:15:49;;;;;;;7.95;2.67;;;;;;;33.31;35.75;100239.00;3414458;28;20058;-70
2021/06/21 07:17:30;;;;;;;6.07;2.72;;;;;;;33.34;35.46;100247.41;3414603;29;20479;-71
2021/06/21 07:19:11;;;;;;;5.63;2.58;;;;;;;33.36;35.69;100247.91;3414739;28;20109;-72
2021/06/21 07:20:51;;;;;;;5.90;2.83;;;;;;;33.39;35.58;100255.50;3414659;28;20070;-71
2021/06/21 07:22:32;;;;;;;6.28;3.17;;;;;;;33.45;35.09;100254.16;3414617;28;20149;-70
2021/06/21 07:24:13;;;;;;;5.03;2.22;;;;;;;33.50;34.87;100249.59;3414610;28;20463;-72
2021/06/21 07:25:54;;;;;;;4.75;2.30;;;;;;;33.53;34.80;100246.97;3413319;28;20050;-71
2021/06/21 07:27:35;;;;;;;4.75;2.25;;;;;;;33.57;34.06;100255.44;3414284;29;20039;-71
2021/06/21 07:29:16;;;;;;;6.40;1.95;;;;;;;33.49;33.56;100245.22;3413622;29;20047;-70
2021/06/21 07:30:56;;;;;;;2.65;1.60;;;;;;;33.43;33.21;100252.88;3414341;29;20102;-70
2021/06/21 07:32:37;;;;;;;4.47;2.03;;;;;;;33.38;34.30;100245.63;3414635;28;20042;-70
2021/06/21 07:34:18;;;;;;;4.15;2.47;;;;;;;33.35;33.84;100257.31;3414415;28;20043;-71
2021/06/21 07:35:59;;;;;;;4.00;1.80;;;;;;;33.22;34.45;100241.78;3414719;28;20051;-71
2021/06/21 07:37:39;;;;;;;2.60;1.92;;;;;;;33.22;34.83;100250.06;3414628;28;20584;-70
2021/06/21 07:39:20;;;;;;;2.83;2.33;;;;;;;33.16;35.21;100238.41;3414620;28;20477;-71
2021/06/21 07:41:02;;;;;;;4.35;2.78;;;;;;;33.14;34.19;100251.75;3414589;28;20094;-71
2021/06/21 07:42:43;;;;;;;4.22;2.33;;;;;;;33.12;34.11;100250.44;3414384;28;20051;-71
2021/06/21 07:44:24;;;;;;;9.03;2.30;;;;;;;33.08;34.32;100247.56;3414263;28;20488;-72
2021/06/21 07:46:05;;;;;;;5.30;2.45;;;;;;;33.04;34.26;100243.03;3413502;29;20677;-71
2021/06/21 07:47:45;;;;;;;4.95;1.90;;;;;;;33.14;34.08;100245.41;3414317;29;20047;-71
2021/06/21 07:49:26;;;;;;;4.25;2.40;;;;;;;33.19;34.71;100253.50;3414490;28;20510;-71
2021/06/21 07:51:09;;;;;;;6.03;2.00;;;;;;;33.27;34.44;100257.38;3414456;28;20125;-72
2021/06/21 07:52:50;;;;;;;3.10;2.30;;;;;;;33.39;34.05;100252.75;3414334;28;20035;-70
2021/06/21 07:54:30;;;;;;;5.95;2.33;;;;;;;33.49;34.26;100248.78;3414208;28;20160;-71
2021/06/21 07:56:15;;;;;;;6.57;2.95;;;;;;;33.59;34.03;100253.97;3414451;28;20035;-71
2021/06/21 07:57:56;;;;;;;3.90;2.42;;;;;;;33.71;34.06;100247.69;3414429;28;20043;-71